createdAt,value
2023-02-27T00:00:59.183Z,586.8
2023-02-27T00:02:01.394Z,586.9
2023-02-27T00:03:04.072Z,586.8
2023-02-27T00:04:06.811Z,586.9
2023-02-27T00:05:09.332Z,587.1
2023-02-27T00:06:11.834Z,587
2023-02-27T00:07:14.464Z,587.1
2023-02-27T00:08:16.775Z,586.8
2023-02-27T00:09:19.270Z,586.9
2023-02-27T00:10:21.273Z,586.9
2023-02-27T00:11:23.517Z,587
2023-02-27T00:12:25.760Z,587.3
2023-02-27T00:13:28.270Z,586.9
2023-02-27T00:14:30.523Z,587.1
2023-02-27T00:15:32.846Z,587.6
2023-02-27T00:16:35.361Z,587.2
2023-02-27T00:17:37.610Z,587
2023-02-27T00:18:40.116Z,587.2
2023-02-27T00:19:42.618Z,587.2
2023-02-27T00:20:45.147Z,586.7
2023-02-27T00:21:47.640Z,586.6
2023-02-27T00:22:50.261Z,586.9
2023-02-27T00:23:52.507Z,586.6
2023-02-27T00:24:54.744Z,586.8
2023-02-27T00:25:56.700Z,586.8
2023-02-27T00:26:58.956Z,586.5
2023-02-27T00:28:01.503Z,586.4
2023-02-27T00:29:04.015Z,586.7
2023-02-27T00:30:06.314Z,586.3
2023-02-27T00:31:09.494Z,586.5
2023-02-27T00:32:12.008Z,586.5
2023-02-27T00:33:14.519Z,586.7
2023-02-27T00:34:16.740Z,586.1
2023-02-27T00:35:19.277Z,586.7
2023-02-27T00:36:21.810Z,586.3
2023-02-27T00:37:24.035Z,586.4
2023-02-27T00:38:26.378Z,586.5
2023-02-27T00:39:28.939Z,586.4
2023-02-27T00:40:31.246Z,586.5
2023-02-27T00:41:33.866Z,586.1
2023-02-27T00:42:35.884Z,586
2023-02-27T00:43:38.430Z,586
2023-02-27T00:44:40.661Z,586.1
2023-02-27T00:45:43.171Z,586.4
2023-02-27T00:46:45.713Z,586.4
2023-02-27T00:47:47.995Z,586.2
2023-02-27T00:48:50.819Z,586.2
2023-02-27T00:49:53.325Z,586
2023-02-27T00:50:55.541Z,586
2023-02-27T00:51:58.021Z,586
2023-02-27T00:53:00.517Z,585.9
2023-02-27T00:54:03.167Z,586
2023-02-27T00:55:05.689Z,585.9
2023-02-27T00:56:08.183Z,585.4
2023-02-27T00:57:10.657Z,586
2023-02-27T00:58:13.175Z,586
2023-02-27T00:59:15.711Z,585.8
2023-02-27T01:00:17.664Z,585.6
2023-02-27T01:01:20.204Z,586.1
2023-02-27T01:02:23.018Z,586.6
2023-02-27T01:03:25.519Z,586
2023-02-27T01:04:27.209Z,585.9
2023-02-27T01:05:29.724Z,586.3
2023-02-27T01:06:32.212Z,586.2
2023-02-27T01:07:34.700Z,586.6
2023-02-27T01:08:36.977Z,586.1
2023-02-27T01:09:39.594Z,586.2
2023-02-27T01:10:42.122Z,586.7
2023-02-27T01:11:44.605Z,586.7
2023-02-27T01:12:46.822Z,586.6
2023-02-27T01:13:49.076Z,586.6
2023-02-27T01:14:51.022Z,586.7
2023-02-27T01:15:53.276Z,586.4
2023-02-27T01:16:55.790Z,586.6
2023-02-27T01:17:58.041Z,586.7
2023-02-27T01:19:00.279Z,586.8
2023-02-27T01:20:02.621Z,586.4
2023-02-27T01:21:04.827Z,586.6
2023-02-27T01:22:07.330Z,586.4
2023-02-27T01:23:09.844Z,586.5
2023-02-27T01:24:12.332Z,587.1
2023-02-27T01:25:14.918Z,587.2
2023-02-27T01:26:17.205Z,587.3
2023-02-27T01:27:19.708Z,586.6
2023-02-27T01:28:22.231Z,586.9
2023-02-27T01:29:24.737Z,587.2
2023-02-27T01:30:27.230Z,587.1
2023-02-27T01:31:31.281Z,586.6
2023-02-27T01:32:34.185Z,586.6
2023-02-27T01:33:36.692Z,586.3
2023-02-27T01:34:39.213Z,586.5
2023-02-27T01:35:41.459Z,586.3
2023-02-27T01:36:43.679Z,586
2023-02-27T01:37:46.176Z,586.3
2023-02-27T01:38:48.389Z,586.1
2023-02-27T01:39:50.609Z,586
2023-02-27T01:40:53.224Z,585.4
2023-02-27T01:41:55.797Z,585.5
2023-02-27T01:42:58.009Z,585.8
2023-02-27T01:44:00.600Z,585.6
2023-02-27T01:45:03.087Z,585.6
2023-02-27T01:46:05.933Z,585.5
2023-02-27T01:47:08.442Z,585.1
2023-02-27T01:48:10.664Z,585.4
2023-02-27T01:49:13.161Z,585.5
2023-02-27T01:50:15.671Z,585.5
2023-02-27T01:51:18.146Z,585.4
2023-02-27T01:52:20.107Z,585.3
2023-02-27T01:53:22.600Z,585.4
2023-02-27T01:54:24.824Z,585.4
2023-02-27T01:55:27.340Z,585.5
2023-02-27T01:56:30.012Z,585.4
2023-02-27T01:57:32.533Z,585
2023-02-27T01:58:35.038Z,585
2023-02-27T01:59:37.271Z,585.5
2023-02-27T02:00:39.764Z,585.1
2023-02-27T02:01:41.988Z,585.1
2023-02-27T02:02:44.478Z,585
2023-02-27T02:03:46.681Z,585.4
2023-02-27T02:04:49.171Z,585.3
2023-02-27T02:05:51.657Z,585.3
2023-02-27T02:06:53.342Z,585
2023-02-27T02:07:55.904Z,584.9
2023-02-27T02:08:58.390Z,585.1
2023-02-27T02:10:00.897Z,584.9
2023-02-27T02:11:03.411Z,585
2023-02-27T02:12:06.024Z,585
2023-02-27T02:13:08.535Z,585.2
2023-02-27T02:14:10.929Z,584.9
2023-02-27T02:15:13.472Z,585.2
2023-02-27T02:16:15.700Z,585
2023-02-27T02:17:18.211Z,585.3
2023-02-27T02:18:20.804Z,584.9
2023-02-27T02:19:23.314Z,585.3
2023-02-27T02:20:25.882Z,585.2
2023-02-27T02:21:29.554Z,585
2023-02-27T02:22:31.759Z,585.4
2023-02-27T02:23:34.268Z,585.8
2023-02-27T02:24:36.501Z,585.3
2023-02-27T02:25:38.452Z,585.3
2023-02-27T02:26:40.677Z,584.9
2023-02-27T02:27:43.331Z,585.2
2023-02-27T02:28:45.863Z,585.3
2023-02-27T02:29:48.073Z,586
2023-02-27T02:30:51.347Z,585.3
2023-02-27T02:31:54.866Z,585
2023-02-27T02:32:57.138Z,585.2
2023-02-27T02:33:59.667Z,586.1
2023-02-27T02:35:01.884Z,585.7
2023-02-27T02:36:04.372Z,585.7
2023-02-27T02:37:06.605Z,586.3
2023-02-27T02:38:09.120Z,586.6
2023-02-27T02:39:11.353Z,586.2
2023-02-27T02:40:13.661Z,586.4
2023-02-27T02:41:16.171Z,586.1
2023-02-27T02:42:17.837Z,586.5
2023-02-27T02:43:20.493Z,586.5
2023-02-27T02:44:23.001Z,586.5
2023-02-27T02:45:25.245Z,586.2
2023-02-27T02:46:27.717Z,586.5
2023-02-27T02:47:30.238Z,586.4
2023-02-27T02:48:32.729Z,586.2
2023-02-27T02:49:35.247Z,586.7
2023-02-27T02:50:37.483Z,586.6
2023-02-27T02:51:39.989Z,586.2
2023-02-27T02:52:42.503Z,586.1
2023-02-27T02:53:45.025Z,586.9
2023-02-27T02:54:47.248Z,586.7
2023-02-27T02:55:49.480Z,586.7
2023-02-27T02:56:51.976Z,586.4
2023-02-27T02:57:54.465Z,586.5
2023-02-27T02:58:57.084Z,586.5
2023-02-27T02:59:59.615Z,586.4
2023-02-27T03:01:02.116Z,586.4
2023-02-27T03:02:04.658Z,585.4
2023-02-27T03:03:06.885Z,585.6
2023-02-27T03:04:10.059Z,585.6
2023-02-27T03:05:12.542Z,585.5
2023-02-27T03:06:15.074Z,585
2023-02-27T03:07:17.770Z,585.1
2023-02-27T03:08:20.269Z,584.8
2023-02-27T03:09:22.752Z,585.3
2023-02-27T03:10:25.248Z,585.1
2023-02-27T03:11:29.669Z,585.4
2023-02-27T03:12:32.162Z,585.4
2023-02-27T03:13:34.730Z,585.5
2023-02-27T03:14:37.057Z,585.5
2023-02-27T03:15:39.642Z,585.8
2023-02-27T03:16:41.863Z,585.6
2023-02-27T03:17:44.538Z,585.5
2023-02-27T03:18:47.030Z,585.5
2023-02-27T03:19:49.555Z,585.4
2023-02-27T03:20:51.813Z,585.1
2023-02-27T03:21:54.321Z,585.5
2023-02-27T03:22:56.587Z,585.4
2023-02-27T03:23:59.093Z,585.5
2023-02-27T03:25:01.601Z,585.3
2023-02-27T03:26:04.117Z,585.7
2023-02-27T03:27:06.357Z,585.4
2023-02-27T03:28:08.856Z,585.8
2023-02-27T03:29:11.386Z,585.7
2023-02-27T03:30:14.042Z,585.3
2023-02-27T03:31:17.094Z,585.5
2023-02-27T03:32:20.074Z,584.8
2023-02-27T03:33:22.600Z,584.8
2023-02-27T03:34:25.129Z,585.2
2023-02-27T03:35:27.619Z,584.9
2023-02-27T03:36:30.127Z,585.3
2023-02-27T03:37:32.657Z,585
2023-02-27T03:38:35.347Z,585.4
2023-02-27T03:39:37.854Z,585.4
2023-02-27T03:40:40.078Z,585.2
2023-02-27T03:41:42.613Z,585.3
2023-02-27T03:42:45.122Z,585
2023-02-27T03:43:47.620Z,584.8
2023-02-27T03:44:52.921Z,584.7
2023-02-27T03:45:55.527Z,584.2
2023-02-27T03:46:58.057Z,584.4
2023-02-27T03:48:00.577Z,584.4
2023-02-27T03:49:03.104Z,584.2
2023-02-27T03:50:05.071Z,584
2023-02-27T03:51:07.572Z,584.5
2023-02-27T03:52:10.078Z,584.1
2023-02-27T03:53:12.610Z,584
2023-02-27T03:54:14.872Z,584
2023-02-27T03:55:17.383Z,584
2023-02-27T03:56:19.098Z,584.4
2023-02-27T03:57:21.405Z,583.7
2023-02-27T03:58:23.936Z,584
2023-02-27T03:59:26.465Z,583.5
2023-02-27T04:00:29.029Z,584
2023-02-27T04:01:32.502Z,584.1
2023-02-27T04:02:35.208Z,584
2023-02-27T04:03:37.458Z,583.7
2023-02-27T04:04:39.973Z,583.9
2023-02-27T04:05:42.214Z,583.8
2023-02-27T04:06:44.779Z,583.6
2023-02-27T04:07:46.816Z,584
2023-02-27T04:08:49.319Z,584.1
2023-02-27T04:09:51.811Z,583.7
2023-02-27T04:10:54.309Z,584.1
2023-02-27T04:11:56.816Z,584.3
2023-02-27T04:12:59.321Z,584.2
2023-02-27T04:14:01.811Z,583.9
2023-02-27T04:15:04.329Z,583.7
2023-02-27T04:16:07.134Z,583.8
2023-02-27T04:17:10.195Z,583.7
2023-02-27T04:18:12.597Z,583.6
2023-02-27T04:19:15.202Z,583.4
2023-02-27T04:20:17.741Z,583.9
2023-02-27T04:21:20.232Z,583.6
2023-02-27T04:22:22.467Z,583.6
2023-02-27T04:23:24.971Z,583.5
2023-02-27T04:24:27.493Z,583.6
2023-02-27T04:25:29.711Z,583.6
2023-02-27T04:26:32.213Z,583.4
2023-02-27T04:27:34.753Z,583.3
2023-02-27T04:28:37.254Z,583.2
2023-02-27T04:29:39.774Z,583.2
2023-02-27T04:30:41.979Z,583.1
2023-02-27T04:31:45.647Z,583.6
2023-02-27T04:32:48.530Z,583.3
2023-02-27T04:33:50.863Z,583.3
2023-02-27T04:34:53.382Z,583.3
2023-02-27T04:35:55.989Z,583.1
2023-02-27T04:36:58.486Z,583.5
2023-02-27T04:38:00.785Z,583.3
2023-02-27T04:39:03.277Z,583
2023-02-27T04:40:05.843Z,583.1
2023-02-27T04:41:07.772Z,583.1
2023-02-27T04:42:09.701Z,583.4
2023-02-27T04:43:12.658Z,583.2
2023-02-27T04:44:15.073Z,583.3
2023-02-27T04:45:17.641Z,583.5
2023-02-27T04:46:19.899Z,583.2
2023-02-27T04:47:22.444Z,583.4
2023-02-27T04:48:25.050Z,583.2
2023-02-27T04:49:27.643Z,583.2
2023-02-27T04:50:30.158Z,583.5
2023-02-27T04:51:32.666Z,583.9
2023-02-27T04:52:34.892Z,583.5
2023-02-27T04:53:37.391Z,583.7
2023-02-27T04:54:39.614Z,583.3
2023-02-27T04:55:42.123Z,583.8
2023-02-27T04:56:44.651Z,583.7
2023-02-27T04:57:47.165Z,583.3
2023-02-27T04:58:49.682Z,583.3
2023-02-27T04:59:51.635Z,583.2
2023-02-27T05:00:53.906Z,583.6
2023-02-27T05:01:57.138Z,583.8
2023-02-27T05:02:59.346Z,583.9
2023-02-27T05:04:02.806Z,584.3
2023-02-27T05:05:05.072Z,583.8
2023-02-27T05:06:07.616Z,583.8
2023-02-27T05:07:09.888Z,584
2023-02-27T05:08:12.405Z,584
2023-02-27T05:09:14.938Z,584.2
2023-02-27T05:10:17.438Z,583.7
2023-02-27T05:11:20.128Z,584.2
2023-02-27T05:12:22.087Z,584.6
2023-02-27T05:13:24.569Z,584
2023-02-27T05:14:26.787Z,584.2
2023-02-27T05:15:29.242Z,584.4
2023-02-27T05:16:32.171Z,584.3
2023-02-27T05:17:35.033Z,583.9
2023-02-27T05:18:37.543Z,584.1
2023-02-27T05:19:40.174Z,584.2
2023-02-27T05:20:42.719Z,584.2
2023-02-27T05:21:45.308Z,584.3
2023-02-27T05:22:47.880Z,583.9
2023-02-27T05:23:50.404Z,584.2
2023-02-27T05:24:52.928Z,584.2
2023-02-27T05:25:55.463Z,583.7
2023-02-27T05:26:57.681Z,583.6
2023-02-27T05:28:00.183Z,583.7
2023-02-27T05:29:02.445Z,583.8
2023-02-27T05:30:05.012Z,583.9
2023-02-27T05:31:07.258Z,583.6
2023-02-27T05:32:10.693Z,583.5
2023-02-27T05:33:13.294Z,583.3
2023-02-27T05:34:15.797Z,583.5
2023-02-27T05:35:18.419Z,583.2
2023-02-27T05:36:20.937Z,583.1
2023-02-27T05:37:23.441Z,583.5
2023-02-27T05:38:25.946Z,583.3
2023-02-27T05:39:28.157Z,582.8
2023-02-27T05:40:30.362Z,583.1
2023-02-27T05:41:32.588Z,583.1
2023-02-27T05:42:35.080Z,583.1
2023-02-27T05:43:37.320Z,583.2
2023-02-27T05:44:39.268Z,582.4
2023-02-27T05:45:41.809Z,582.8
2023-02-27T05:46:44.301Z,583.1
2023-02-27T05:47:46.797Z,583
2023-02-27T05:48:49.045Z,583.1
2023-02-27T05:49:51.406Z,583
2023-02-27T05:50:54.099Z,583.2
2023-02-27T05:51:58.684Z,583.1
2023-02-27T05:53:01.194Z,583.4
2023-02-27T05:54:03.441Z,582.9
2023-02-27T05:55:05.996Z,583
2023-02-27T05:56:08.511Z,582.8
2023-02-27T05:57:11.009Z,583
2023-02-27T05:58:13.518Z,582.9
2023-02-27T05:59:16.038Z,582.9
2023-02-27T06:00:18.349Z,583.1
2023-02-27T06:01:20.302Z,583.1
2023-02-27T06:02:23.255Z,583.1
2023-02-27T06:03:26.156Z,583.2
2023-02-27T06:04:28.720Z,583.1
2023-02-27T06:05:30.949Z,582.9
2023-02-27T06:06:33.657Z,583.1
2023-02-27T06:07:35.902Z,582.6
2023-02-27T06:08:38.140Z,583
2023-02-27T06:09:40.809Z,582.9
2023-02-27T06:10:42.768Z,582.7
2023-02-27T06:11:45.004Z,582.6
2023-02-27T06:12:47.533Z,582.2
2023-02-27T06:13:49.770Z,582.3
2023-02-27T06:14:51.992Z,581.9
2023-02-27T06:15:54.525Z,581.8
2023-02-27T06:16:57.424Z,582.2
2023-02-27T06:17:59.985Z,582.1
2023-02-27T06:20:09.050Z,582.1
2023-02-27T06:21:11.299Z,581.8
2023-02-27T06:22:13.941Z,581.5
2023-02-27T06:23:16.279Z,581.8
2023-02-27T06:24:19.993Z,581.7
2023-02-27T06:25:25.840Z,581.3
2023-02-27T06:26:30.147Z,581.5
2023-02-27T06:27:32.648Z,581.3
2023-02-27T06:28:35.228Z,581.7
2023-02-27T06:29:37.534Z,581.3
2023-02-27T06:30:40.561Z,581
2023-02-27T06:31:42.829Z,581.1
2023-02-27T06:32:45.083Z,581
2023-02-27T06:33:47.088Z,580.7
2023-02-27T06:34:49.320Z,581.2
2023-02-27T06:35:51.860Z,580.7
2023-02-27T06:36:54.444Z,581
2023-02-27T06:37:56.917Z,581.2
2023-02-27T06:38:59.617Z,580.7
2023-02-27T06:40:02.138Z,580.5
2023-02-27T06:41:04.356Z,580.4
2023-02-27T06:42:06.591Z,580.4
2023-02-27T06:43:09.088Z,580.6
2023-02-27T06:44:11.322Z,580.8
2023-02-27T06:45:13.864Z,580.4
2023-02-27T06:46:16.764Z,580
2023-02-27T06:47:19.282Z,580.4
2023-02-27T06:48:21.786Z,580.3
2023-02-27T06:49:24.021Z,580.1
2023-02-27T06:50:26.237Z,580.5
2023-02-27T06:51:28.475Z,580.2
2023-02-27T06:52:30.717Z,580.2
2023-02-27T06:53:33.023Z,580.1
2023-02-27T06:54:35.545Z,580.1
2023-02-27T06:55:38.198Z,580.1
2023-02-27T06:56:40.698Z,579.9
2023-02-27T06:57:43.213Z,580
2023-02-27T06:58:45.514Z,580
2023-02-27T06:59:47.735Z,580.2
2023-02-27T07:00:49.965Z,580.3
2023-02-27T07:01:52.479Z,579.9
2023-02-27T07:02:54.977Z,579.9
2023-02-27T07:03:57.208Z,580.6
2023-02-27T07:04:59.688Z,580.1
2023-02-27T07:06:02.491Z,580.2
2023-02-27T07:08:09.740Z,580.4
2023-02-27T07:09:12.350Z,580.7
2023-02-27T07:10:14.929Z,580.4
2023-02-27T07:11:17.145Z,580.1
2023-02-27T07:12:19.680Z,580.2
2023-02-27T07:13:22.202Z,580.1
2023-02-27T07:14:24.450Z,580.6
2023-02-27T07:15:26.668Z,579.9
2023-02-27T07:16:30.325Z,580.8
2023-02-27T07:17:32.895Z,580.2
2023-02-27T07:18:35.107Z,580
2023-02-27T07:19:37.631Z,579.9
2023-02-27T07:20:39.561Z,579.9
2023-02-27T07:21:42.062Z,579.7
2023-02-27T07:22:44.555Z,580
2023-02-27T07:23:47.083Z,579.7
2023-02-27T07:24:49.439Z,580
2023-02-27T07:25:51.683Z,579.7
2023-02-27T07:26:54.206Z,579.2
2023-02-27T07:27:56.701Z,579.6
2023-02-27T07:28:58.931Z,579.3
2023-02-27T07:30:00.923Z,579.4
2023-02-27T07:31:03.517Z,578.7
2023-02-27T07:32:06.528Z,579
2023-02-27T07:33:09.077Z,578.6
2023-02-27T07:34:11.592Z,578.6
2023-02-27T07:35:14.118Z,578.7
2023-02-27T07:36:16.628Z,578.1
2023-02-27T07:37:19.195Z,578.3
2023-02-27T07:38:21.557Z,578.2
2023-02-27T07:39:23.831Z,578.3
2023-02-27T07:40:26.196Z,578
2023-02-27T07:42:33.678Z,577.8
2023-02-27T07:43:36.199Z,578
2023-02-27T07:44:38.746Z,577.6
2023-02-27T07:45:41.262Z,577.9
2023-02-27T07:46:43.791Z,577.7
2023-02-27T07:47:45.997Z,578.3
2023-02-27T07:48:48.554Z,578.1
2023-02-27T07:49:50.816Z,578.4
2023-02-27T07:50:52.515Z,578
2023-02-27T07:51:55.051Z,578.2
2023-02-27T07:52:57.324Z,577.9
2023-02-27T07:53:59.333Z,577.7
2023-02-27T07:55:01.839Z,578.5
2023-02-27T07:56:04.439Z,578
2023-02-27T07:57:06.705Z,577.9
2023-02-27T07:58:08.696Z,577.9
2023-02-27T07:59:11.212Z,577.3
2023-02-27T08:00:13.775Z,577.6
2023-02-27T08:01:16.034Z,577.6
2023-02-27T08:02:18.578Z,577.4
2023-02-27T08:03:20.864Z,577.6
2023-02-27T08:04:23.799Z,577.2
2023-02-27T08:05:25.764Z,577.7
2023-02-27T08:06:30.198Z,578
2023-02-27T08:07:32.561Z,577.4
2023-02-27T08:08:35.091Z,577.1
2023-02-27T08:09:37.032Z,577.5
2023-02-27T08:10:39.547Z,577.3
2023-02-27T08:11:41.915Z,577.5
2023-02-27T08:12:44.173Z,577.4
2023-02-27T08:14:51.705Z,577.3
2023-02-27T08:15:54.166Z,577.4
2023-02-27T08:16:56.711Z,577.3
2023-02-27T08:17:59.227Z,577.2
2023-02-27T08:19:01.776Z,577.4
2023-02-27T08:20:03.802Z,576.8
2023-02-27T08:21:05.822Z,576.7
2023-02-27T08:22:08.382Z,576.6
2023-02-27T08:23:10.945Z,576.5
2023-02-27T08:24:13.232Z,577.2
2023-02-27T08:25:15.738Z,577.3
2023-02-27T08:26:18.253Z,577.2
2023-02-27T08:27:20.909Z,576.7
2023-02-27T08:28:23.177Z,576.9
2023-02-27T08:29:25.881Z,576.3
2023-02-27T08:30:29.304Z,577.1
2023-02-27T08:31:32.004Z,576.4
2023-02-27T08:32:34.749Z,577
2023-02-27T08:33:37.332Z,576.3
2023-02-27T08:34:39.574Z,577
2023-02-27T08:35:42.465Z,576.1
2023-02-27T08:36:44.932Z,576.7
2023-02-27T08:37:47.652Z,576.7
2023-02-27T08:38:50.214Z,576.1
2023-02-27T08:39:52.754Z,575.6
2023-02-27T08:40:55.288Z,575.8
2023-02-27T08:41:57.827Z,575.3
2023-02-27T08:43:00.431Z,575.6
2023-02-27T08:44:03.004Z,575.2
2023-02-27T08:45:05.020Z,575.7
2023-02-27T08:46:07.706Z,575.8
2023-02-27T08:47:09.689Z,575
2023-02-27T08:48:12.292Z,575.6
2023-02-27T08:49:14.522Z,575.2
2023-02-27T08:50:17.040Z,575.2
2023-02-27T08:51:19.578Z,575.6
2023-02-27T08:53:28.136Z,574.6
2023-02-27T08:54:30.786Z,575
2023-02-27T08:55:32.719Z,574.8
2023-02-27T08:56:35.241Z,574.2
2023-02-27T08:57:37.771Z,575.1
2023-02-27T08:58:40.408Z,574.3
2023-02-27T08:59:43.141Z,575
2023-02-27T09:00:45.876Z,574.6
2023-02-27T09:01:47.859Z,573.8
2023-02-27T09:02:50.733Z,574.2
2023-02-27T09:03:53.263Z,574.3
2023-02-27T09:04:55.842Z,574
2023-02-27T09:05:58.072Z,574
2023-02-27T09:07:00.357Z,574
2023-02-27T09:08:02.599Z,574.4
2023-02-27T09:09:05.184Z,573.7
2023-02-27T09:10:07.433Z,574.1
2023-02-27T09:11:09.698Z,573.8
2023-02-27T09:12:11.939Z,574.1
2023-02-27T09:13:14.173Z,574.2
2023-02-27T09:14:16.795Z,574
2023-02-27T09:15:19.330Z,573.8
2023-02-27T09:16:21.836Z,574.3
2023-02-27T09:17:24.422Z,573.9
2023-02-27T09:18:26.411Z,573.7
2023-02-27T09:19:28.958Z,573.8
2023-02-27T09:20:31.794Z,573.7
2023-02-27T09:21:34.403Z,573.9
2023-02-27T09:22:36.664Z,573.1
2023-02-27T09:23:39.201Z,573.2
2023-02-27T09:24:41.435Z,574
2023-02-27T09:25:43.950Z,574
2023-02-27T09:26:50.627Z,573.5
2023-02-27T09:27:52.989Z,573.4
2023-02-27T09:28:54.993Z,574.1
2023-02-27T09:29:57.437Z,574.2
2023-02-27T09:30:59.992Z,574
2023-02-27T09:32:03.390Z,573.9
2023-02-27T09:33:05.966Z,573.8
2023-02-27T09:34:08.466Z,574
2023-02-27T09:35:11.070Z,573.9
2023-02-27T09:36:13.622Z,573.6
2023-02-27T09:37:16.136Z,572.9
2023-02-27T09:38:18.688Z,572.8
2023-02-27T09:39:20.936Z,573
2023-02-27T09:40:23.680Z,573.4
2023-02-27T09:41:27.693Z,572.5
2023-02-27T09:42:30.126Z,572.7
2023-02-27T09:43:32.636Z,573.1
2023-02-27T09:45:40.753Z,573.1
2023-02-27T09:46:43.297Z,572.6
2023-02-27T09:47:45.530Z,572.2
2023-02-27T09:48:47.752Z,571.5
2023-02-27T09:49:50.282Z,571.5
2023-02-27T09:50:52.228Z,571.6
2023-02-27T09:51:55.766Z,571.5
2023-02-27T09:52:57.456Z,571.4
2023-02-27T09:53:59.719Z,571.2
2023-02-27T09:55:02.016Z,571.3
2023-02-27T09:56:04.265Z,570.8
2023-02-27T09:57:06.508Z,570.8
2023-02-27T09:58:08.847Z,571
2023-02-27T09:59:11.338Z,571.1
2023-02-27T10:00:13.844Z,570.6
2023-02-27T10:01:16.218Z,570.1
2023-02-27T10:02:18.701Z,569.4
2023-02-27T10:03:21.015Z,569.8
2023-02-27T10:04:22.719Z,569.7
2023-02-27T10:05:25.272Z,569.8
2023-02-27T10:06:30.075Z,569.9
2023-02-27T10:07:32.625Z,569.8
2023-02-27T10:08:35.155Z,569.6
2023-02-27T10:09:37.484Z,569.6
2023-02-27T10:10:40.020Z,569
2023-02-27T10:11:42.253Z,569.7
2023-02-27T10:12:44.787Z,569.1
2023-02-27T10:13:47.053Z,569.7
2023-02-27T10:14:49.590Z,569.1
2023-02-27T10:15:52.136Z,569
2023-02-27T10:16:55.158Z,568.8
2023-02-27T10:17:57.826Z,568.4
2023-02-27T10:18:59.922Z,568.5
2023-02-27T10:20:01.987Z,568.1
2023-02-27T10:21:04.254Z,567.2
2023-02-27T10:22:06.761Z,568.5
2023-02-27T10:23:08.427Z,567.6
2023-02-27T10:24:10.932Z,567.2
2023-02-27T10:26:18.431Z,567.9
2023-02-27T10:27:20.970Z,567.5
2023-02-27T10:28:23.262Z,567
2023-02-27T10:29:25.539Z,568.1
2023-02-27T10:31:33.850Z,567.9
2023-02-27T10:32:36.543Z,567.8
2023-02-27T10:33:39.091Z,567.9
2023-02-27T10:34:41.636Z,567.8
2023-02-27T10:35:44.500Z,566.4
2023-02-27T10:36:46.784Z,566.7
2023-02-27T10:37:49.046Z,567
2023-02-27T10:38:51.253Z,567
2023-02-27T10:39:53.773Z,567.3
2023-02-27T10:40:56.033Z,567.4
2023-02-27T10:41:58.019Z,567.2
2023-02-27T10:43:01.207Z,567.4
2023-02-27T10:44:03.159Z,567.9
2023-02-27T10:45:05.413Z,567.1
2023-02-27T10:46:08.285Z,566.9
2023-02-27T10:47:10.550Z,566.8
2023-02-27T10:48:13.459Z,566.9
2023-02-27T10:50:23.179Z,566.6
2023-02-27T10:51:26.636Z,567.4
2023-02-27T10:52:29.410Z,567.2
2023-02-27T10:53:32.083Z,566.9
2023-02-27T10:54:34.655Z,566.9
2023-02-27T10:55:37.201Z,566.8
2023-02-27T10:56:39.776Z,567.2
2023-02-27T10:57:42.032Z,567.7
2023-02-27T10:58:44.264Z,567.4
2023-02-27T10:59:46.534Z,567.3
2023-02-27T11:00:48.861Z,567.2
2023-02-27T11:01:51.777Z,567.6
2023-02-27T11:02:54.323Z,567.6
2023-02-27T11:03:56.974Z,567.5
2023-02-27T11:04:59.663Z,568.5
2023-02-27T11:06:02.269Z,566.9
2023-02-27T11:07:04.251Z,567
2023-02-27T11:08:06.519Z,566.6
2023-02-27T11:09:08.474Z,567.3
2023-02-27T11:10:10.689Z,566.8
2023-02-27T11:11:13.007Z,566.9
2023-02-27T11:12:15.267Z,566.9
2023-02-27T11:13:17.801Z,567.2
2023-02-27T11:14:20.354Z,567
2023-02-27T11:15:22.329Z,566.7
2023-02-27T11:16:24.289Z,567.5
2023-02-27T11:17:26.805Z,567.2
2023-02-27T11:18:29.451Z,567.4
2023-02-27T11:19:32.183Z,567.1
2023-02-27T11:20:34.460Z,567.3
2023-02-27T11:21:36.715Z,567.6
2023-02-27T11:22:39.245Z,568.4
2023-02-27T11:23:41.513Z,567.5
2023-02-27T11:24:43.748Z,567.3
2023-02-27T11:25:45.959Z,567.9
2023-02-27T11:26:47.921Z,568.2
2023-02-27T11:27:50.213Z,567.4
2023-02-27T11:28:52.744Z,567.8
2023-02-27T11:29:55.259Z,567.5
2023-02-27T11:30:57.904Z,567.7
2023-02-27T11:32:00.877Z,567.6
2023-02-27T11:33:03.396Z,567.5
2023-02-27T11:34:05.660Z,567.8
2023-02-27T11:35:08.270Z,567.9
2023-02-27T11:36:11.103Z,568.2
2023-02-27T11:37:13.342Z,568.6
2023-02-27T11:38:15.276Z,568.2
2023-02-27T11:39:17.260Z,568.3
2023-02-27T11:40:19.503Z,567.9
2023-02-27T11:41:21.739Z,566.9
2023-02-27T11:42:23.984Z,568.7
2023-02-27T11:43:26.486Z,568.7
2023-02-27T11:47:43.987Z,567.6
2023-02-27T11:48:46.232Z,568.2
2023-02-27T11:49:48.763Z,568.3
2023-02-27T11:50:51.353Z,567.6
2023-02-27T11:51:53.912Z,568.8
2023-02-27T11:52:56.175Z,568.5
2023-02-27T11:53:58.680Z,568.1
2023-02-27T11:55:01.211Z,568.3
2023-02-27T11:56:03.448Z,568.8
2023-02-27T11:57:05.821Z,568
2023-02-27T11:58:08.070Z,568.6
2023-02-27T11:59:10.580Z,569.1
2023-02-27T12:00:12.834Z,569.1
2023-02-27T12:01:15.367Z,569.3
2023-02-27T12:02:17.593Z,568.8
2023-02-27T12:03:20.108Z,567.5
2023-02-27T12:04:22.976Z,568.7
2023-02-27T12:05:25.498Z,568.2
2023-02-27T12:06:28.141Z,568.3
2023-02-27T12:07:30.521Z,568.7
2023-02-27T12:08:32.789Z,569
2023-02-27T12:09:35.363Z,568.5
2023-02-27T12:10:37.911Z,568.8
2023-02-27T12:11:40.144Z,569
2023-02-27T12:12:42.653Z,568
2023-02-27T12:13:44.917Z,568.8
2023-02-27T12:14:47.505Z,568.5
2023-02-27T12:15:49.720Z,569
2023-02-27T12:16:52.445Z,569
2023-02-27T12:17:54.687Z,568.8
2023-02-27T12:18:57.257Z,568.2
2023-02-27T12:19:59.619Z,568.8
2023-02-27T12:21:02.164Z,568.5
2023-02-27T12:22:04.844Z,569.2
2023-02-27T12:23:07.370Z,569.3
2023-02-27T12:24:09.348Z,567.8
2023-02-27T12:25:11.871Z,568.9
2023-02-27T12:26:13.842Z,568.8
2023-02-27T12:27:16.137Z,568.2
2023-02-27T12:28:18.638Z,567.9
2023-02-27T12:29:20.848Z,568.7
2023-02-27T12:30:23.377Z,568.7
2023-02-27T12:31:26.987Z,567.7
2023-02-27T12:32:29.893Z,568.5
2023-02-27T12:33:32.438Z,569
2023-02-27T12:34:34.673Z,569
2023-02-27T12:35:37.021Z,568.5
2023-02-27T12:36:39.052Z,568.8
2023-02-27T12:37:41.860Z,569.5
2023-02-27T12:38:44.150Z,567.7
2023-02-27T12:39:46.931Z,568.9
2023-02-27T12:40:49.163Z,568.9
2023-02-27T12:41:51.427Z,569
2023-02-27T12:42:53.428Z,568
2023-02-27T12:43:55.671Z,568.2
2023-02-27T12:44:57.376Z,568.8
2023-02-27T12:46:00.274Z,567.4
2023-02-27T12:47:02.850Z,567.9
2023-02-27T12:48:05.397Z,568
2023-02-27T12:49:09.023Z,568
2023-02-27T12:50:11.869Z,568.5
2023-02-27T12:51:14.412Z,567.6
2023-02-27T12:52:16.928Z,568.2
2023-02-27T12:53:19.571Z,567.7
2023-02-27T12:54:22.155Z,568
2023-02-27T12:55:24.386Z,567.7
2023-02-27T12:56:26.646Z,567.3
2023-02-27T12:57:28.866Z,567.4
2023-02-27T12:58:31.142Z,568.1
2023-02-27T12:59:33.372Z,567.7
2023-02-27T13:00:38.355Z,567.7
2023-02-27T13:01:41.017Z,567.2
2023-02-27T13:02:43.545Z,568.2
2023-02-27T13:03:45.993Z,568.3
2023-02-27T13:04:48.553Z,568.1
2023-02-27T13:05:51.088Z,568
2023-02-27T13:06:53.595Z,567.5
2023-02-27T13:07:56.105Z,567.9
2023-02-27T13:08:58.463Z,568.2
2023-02-27T13:10:01.036Z,567.7
2023-02-27T13:11:03.567Z,567.8
2023-02-27T13:12:05.572Z,567.9
2023-02-27T13:14:13.766Z,567.4
2023-02-27T13:15:16.285Z,568.1
2023-02-27T13:16:18.169Z,568.2
2023-02-27T13:17:20.177Z,568.4
2023-02-27T13:19:27.860Z,567.9
2023-02-27T13:20:30.374Z,567.8
2023-02-27T13:21:32.341Z,568.1
2023-02-27T13:22:34.336Z,568.2
2023-02-27T13:23:36.345Z,568
2023-02-27T13:24:38.989Z,567.9
2023-02-27T13:25:41.516Z,568.1
2023-02-27T13:26:44.082Z,567.8
2023-02-27T13:27:46.400Z,567.6
2023-02-27T13:28:48.681Z,567.4
2023-02-27T13:29:51.209Z,567.9
2023-02-27T13:30:53.744Z,567.9
2023-02-27T13:31:56.921Z,567.9
2023-02-27T13:33:00.310Z,568.3
2023-02-27T13:34:02.876Z,569.1
2023-02-27T13:35:05.122Z,568.7
2023-02-27T13:36:07.677Z,568
2023-02-27T13:37:10.647Z,569.5
2023-02-27T13:38:13.178Z,568.2
2023-02-27T13:39:15.681Z,568.7
2023-02-27T13:40:18.338Z,568
2023-02-27T13:41:20.978Z,568.7
2023-02-27T13:42:23.219Z,569
2023-02-27T13:43:25.465Z,568.6
2023-02-27T13:44:27.973Z,568.8
2023-02-27T13:45:30.221Z,568.9
2023-02-27T13:46:32.797Z,568.2
2023-02-27T13:47:35.404Z,568.8